createdAt,value
2018-04-07T00:00:23.889Z,45.65
2018-04-07T00:01:26.417Z,45.54
2018-04-07T00:02:28.920Z,45.43
2018-04-07T00:03:31.429Z,45.37
2018-04-07T00:04:33.937Z,45.25
2018-04-07T00:05:36.440Z,45.22
2018-04-07T00:06:38.968Z,45.26
2018-04-07T00:07:41.481Z,45.33
2018-04-07T00:08:43.987Z,45.43
2018-04-07T00:09:46.513Z,45.49
2018-04-07T00:10:49.035Z,45.68
2018-04-07T00:11:51.564Z,45.77
2018-04-07T00:12:54.073Z,45.78
2018-04-07T00:13:56.651Z,45.83
2018-04-07T00:14:59.165Z,45.85
2018-04-07T00:16:01.672Z,45.92
2018-04-07T00:17:04.196Z,45.96
2018-04-07T00:18:06.702Z,46.01
2018-04-07T00:19:09.233Z,46.08
2018-04-07T00:20:11.742Z,46.14
2018-04-07T00:21:14.249Z,46.18
2018-04-07T00:22:16.773Z,46.18
2018-04-07T00:23:19.285Z,46.24
2018-04-07T00:24:21.795Z,46.30
2018-04-07T00:25:24.302Z,46.32
2018-04-07T00:26:26.809Z,46.40
2018-04-07T00:27:29.333Z,46.45
2018-04-07T00:28:31.842Z,46.48
2018-04-07T00:29:34.364Z,46.57
2018-04-07T00:30:36.868Z,46.60
2018-04-07T00:31:39.379Z,46.51
2018-04-07T00:32:41.912Z,46.40
2018-04-07T00:33:44.421Z,46.42
2018-04-07T00:34:46.925Z,46.33
2018-04-07T00:35:49.433Z,46.19
2018-04-07T00:36:51.937Z,46.18
2018-04-07T00:37:54.459Z,46.11
2018-04-07T00:38:56.965Z,46.06
2018-04-07T00:39:59.464Z,46.07
2018-04-07T00:41:01.973Z,46.00
2018-04-07T00:42:04.477Z,45.99
2018-04-07T00:43:06.998Z,46.00
2018-04-07T00:44:09.504Z,46.03
2018-04-07T00:45:12.011Z,46.07
2018-04-07T00:46:14.517Z,46.12
2018-04-07T00:47:17.026Z,46.33
2018-04-07T00:48:19.544Z,46.35
2018-04-07T00:49:22.057Z,46.38
2018-04-07T00:50:24.568Z,46.47
2018-04-07T00:51:27.101Z,46.60
2018-04-07T00:52:41.537Z,46.63
2018-04-07T00:53:44.056Z,46.70
2018-04-07T00:54:46.561Z,46.75
2018-04-07T00:55:49.897Z,46.91
2018-04-07T00:56:52.404Z,47.04
2018-04-07T00:57:54.905Z,47.11
2018-04-07T00:58:57.424Z,47.12
2018-04-07T00:59:59.935Z,47.16
2018-04-07T01:01:02.445Z,47.12
2018-04-07T01:02:04.956Z,47.12
2018-04-07T01:03:07.465Z,47.09
2018-04-07T01:04:09.993Z,46.94
2018-04-07T01:05:12.551Z,46.82
2018-04-07T01:06:15.073Z,46.70
2018-04-07T01:07:17.613Z,46.52
2018-04-07T01:08:20.124Z,46.42
2018-04-07T01:09:22.649Z,46.43
2018-04-07T01:10:25.148Z,46.50
2018-04-07T01:11:27.652Z,46.38
2018-04-07T01:12:30.164Z,46.40
2018-04-07T01:13:32.668Z,46.41
2018-04-07T01:14:35.204Z,46.45
2018-04-07T01:15:37.708Z,46.46
2018-04-07T01:16:40.224Z,46.47
2018-04-07T01:17:42.734Z,46.48
2018-04-07T01:18:45.304Z,46.47
2018-04-07T01:19:47.825Z,46.53
2018-04-07T01:20:50.330Z,46.61
2018-04-07T01:21:52.835Z,46.67
2018-04-07T01:22:55.342Z,46.70
2018-04-07T01:23:58.009Z,46.87
2018-04-07T01:25:00.554Z,46.92
2018-04-07T01:26:03.057Z,46.94
2018-04-07T01:27:05.562Z,47.07
2018-04-07T01:28:08.148Z,47.08
2018-04-07T01:29:10.659Z,47.08
2018-04-07T01:30:13.181Z,47.19
2018-04-07T01:31:15.689Z,47.32
2018-04-07T01:32:18.199Z,47.36
2018-04-07T01:33:20.700Z,47.38
2018-04-07T01:34:23.206Z,47.42
2018-04-07T01:35:25.741Z,47.40
2018-04-07T01:36:28.244Z,47.30
2018-04-07T01:37:30.748Z,47.16
2018-04-07T01:38:33.264Z,47.04
2018-04-07T01:39:35.797Z,46.94
2018-04-07T01:40:38.324Z,47.01
2018-04-07T01:41:40.828Z,46.95
2018-04-07T01:42:43.330Z,46.89
2018-04-07T01:43:45.840Z,46.90
2018-04-07T01:44:48.369Z,46.87
2018-04-07T01:45:50.904Z,46.88
2018-04-07T01:46:53.573Z,46.88
2018-04-07T01:47:56.081Z,46.94
2018-04-07T01:48:58.599Z,47.03
2018-04-07T01:50:01.100Z,47.02
2018-04-07T01:51:03.625Z,47.09
2018-04-07T01:52:06.139Z,47.18
2018-04-07T01:53:08.657Z,47.20
2018-04-07T01:54:11.168Z,47.25
2018-04-07T01:55:13.673Z,47.38
2018-04-07T01:56:16.200Z,47.65
2018-04-07T01:57:18.712Z,47.74
2018-04-07T01:58:21.217Z,47.73
2018-04-07T01:59:23.732Z,47.76
2018-04-07T02:00:26.238Z,47.83
2018-04-07T02:01:28.777Z,47.89
2018-04-07T02:02:31.276Z,47.90
2018-04-07T02:03:33.788Z,47.93
2018-04-07T02:04:36.293Z,48.06
2018-04-07T02:05:38.800Z,48.06
2018-04-07T02:06:41.327Z,48.14
2018-04-07T02:07:43.837Z,48.20
2018-04-07T02:08:46.342Z,48.20
2018-04-07T02:09:48.844Z,48.19
2018-04-07T02:10:51.348Z,48.03
2018-04-07T02:11:53.877Z,47.93
2018-04-07T02:12:56.385Z,47.85
2018-04-07T02:13:58.889Z,47.80
2018-04-07T02:15:01.395Z,47.73
2018-04-07T02:16:03.903Z,47.62
2018-04-07T02:17:06.424Z,47.60
2018-04-07T02:18:08.994Z,47.59
2018-04-07T02:19:11.500Z,47.62
2018-04-07T02:20:14.032Z,47.61
2018-04-07T02:21:16.545Z,47.57
2018-04-07T02:22:19.072Z,47.59
2018-04-07T02:23:21.579Z,47.60
2018-04-07T02:24:24.084Z,47.62
2018-04-07T02:25:26.589Z,47.68
2018-04-07T02:26:29.088Z,47.67
2018-04-07T02:27:31.626Z,47.71
2018-04-07T02:28:34.132Z,47.75
2018-04-07T02:29:36.633Z,47.99
2018-04-07T02:30:39.148Z,48.11
2018-04-07T02:31:41.726Z,48.20
2018-04-07T02:32:44.253Z,48.20
2018-04-07T02:33:46.760Z,48.20
2018-04-07T02:34:49.268Z,48.35
2018-04-07T02:35:51.774Z,48.43
2018-04-07T02:36:54.301Z,48.55
2018-04-07T02:37:56.824Z,48.60
2018-04-07T02:38:59.330Z,48.67
2018-04-07T02:40:01.855Z,48.68
2018-04-07T02:41:04.357Z,48.78
2018-04-07T02:42:06.894Z,48.74
2018-04-07T02:43:09.422Z,48.76
2018-04-07T02:44:11.933Z,48.63
2018-04-07T02:45:14.447Z,48.50
2018-04-07T02:46:16.957Z,48.40
2018-04-07T02:47:19.540Z,48.28
2018-04-07T02:48:22.073Z,48.15
2018-04-07T02:49:24.580Z,48.05
2018-04-07T02:50:27.089Z,47.99
2018-04-07T02:51:29.686Z,47.98
2018-04-07T02:52:32.201Z,47.92
2018-04-07T02:53:34.774Z,47.91
2018-04-07T02:54:37.285Z,47.90
2018-04-07T02:55:39.793Z,47.94
2018-04-07T02:56:42.312Z,47.98
2018-04-07T02:57:44.825Z,47.98
2018-04-07T02:58:47.349Z,48.05
2018-04-07T02:59:49.857Z,48.09
2018-04-07T03:00:52.411Z,48.11
2018-04-07T03:01:54.912Z,48.17
2018-04-07T03:02:57.417Z,48.19
2018-04-07T03:03:59.942Z,48.26
2018-04-07T03:05:02.453Z,48.41
2018-04-07T03:06:04.957Z,48.51
2018-04-07T03:07:07.470Z,48.50
2018-04-07T03:08:09.998Z,48.51
2018-04-07T03:09:12.516Z,48.56
2018-04-07T03:10:15.030Z,48.64
2018-04-07T03:11:17.548Z,48.68
2018-04-07T03:12:20.058Z,48.74
2018-04-07T03:13:22.584Z,48.81
2018-04-07T03:14:25.090Z,48.83
2018-04-07T03:15:27.595Z,48.86
2018-04-07T03:16:30.104Z,48.94
2018-04-07T03:17:32.630Z,48.98
2018-04-07T03:18:35.160Z,48.99
2018-04-07T03:19:37.669Z,49.03
2018-04-07T03:20:40.177Z,48.80
2018-04-07T03:21:42.681Z,48.70
2018-04-07T03:22:45.180Z,48.65
2018-04-07T03:23:47.718Z,48.68
2018-04-07T03:24:50.229Z,48.58
2018-04-07T03:25:52.761Z,48.57
2018-04-07T03:26:55.275Z,48.48
2018-04-07T03:27:57.794Z,48.43
2018-04-07T03:29:00.320Z,48.50
2018-04-07T03:30:02.829Z,48.56
2018-04-07T03:31:05.334Z,48.57
2018-04-07T03:32:07.841Z,48.55
2018-04-07T03:33:10.361Z,48.63
2018-04-07T03:34:12.892Z,48.80
2018-04-07T03:35:15.401Z,48.81
2018-04-07T03:36:17.921Z,48.74
2018-04-07T03:37:20.424Z,48.81
2018-04-07T03:38:22.937Z,48.87
2018-04-07T03:39:25.497Z,48.97
2018-04-07T03:40:27.997Z,49.01
2018-04-07T03:41:30.497Z,49.12
2018-04-07T03:42:33.084Z,49.15
2018-04-07T03:43:35.616Z,49.24
2018-04-07T03:44:38.136Z,49.33
2018-04-07T03:45:40.647Z,49.34
2018-04-07T03:46:43.152Z,49.37
2018-04-07T03:47:45.670Z,49.55
2018-04-07T03:48:48.200Z,49.75
2018-04-07T03:49:50.705Z,49.63
2018-04-07T03:50:53.213Z,49.11
2018-04-07T03:51:55.724Z,48.88
2018-04-07T03:52:58.233Z,48.47
2018-04-07T03:54:00.770Z,47.98
2018-04-07T03:55:03.277Z,47.42
2018-04-07T03:56:05.792Z,46.87
2018-04-07T03:57:08.297Z,46.70
2018-04-07T03:58:10.805Z,46.55
2018-04-07T03:59:13.328Z,46.63
2018-04-07T04:00:15.839Z,46.69
2018-04-07T04:01:18.344Z,46.76
2018-04-07T04:02:20.857Z,46.83
2018-04-07T04:03:23.372Z,46.98
2018-04-07T04:04:25.897Z,46.97
2018-04-07T04:05:28.404Z,47.08
2018-04-07T04:06:30.939Z,47.25
2018-04-07T04:07:33.449Z,47.38
2018-04-07T04:08:35.957Z,47.51
2018-04-07T04:09:38.480Z,47.52
2018-04-07T04:10:40.989Z,47.68
2018-04-07T04:11:43.497Z,47.80
2018-04-07T04:12:46.008Z,47.92
2018-04-07T04:13:48.520Z,47.96
2018-04-07T04:14:51.048Z,47.98
2018-04-07T04:15:53.552Z,48.07
2018-04-07T04:16:56.061Z,48.22
2018-04-07T04:17:58.571Z,48.46
2018-04-07T04:19:01.081Z,48.43
2018-04-07T04:20:03.619Z,48.59
2018-04-07T04:21:06.134Z,48.66
2018-04-07T04:22:08.653Z,48.63
2018-04-07T04:23:11.166Z,48.65
2018-04-07T04:24:13.676Z,48.68
2018-04-07T04:25:16.200Z,48.74
2018-04-07T04:26:18.724Z,48.85
2018-04-07T04:27:21.228Z,48.89
2018-04-07T04:28:23.733Z,48.97
2018-04-07T04:29:26.244Z,49.05
2018-04-07T04:30:28.768Z,49.10
2018-04-07T04:31:31.284Z,49.22
2018-04-07T04:32:33.824Z,49.26
2018-04-07T04:33:36.374Z,49.25
2018-04-07T04:34:38.887Z,49.34
2018-04-07T04:35:41.413Z,49.40
2018-04-07T04:36:43.918Z,49.39
2018-04-07T04:37:46.424Z,49.45
2018-04-07T04:38:48.936Z,49.48
2018-04-07T04:39:51.446Z,49.53
2018-04-07T04:40:53.973Z,49.52
2018-04-07T04:41:56.476Z,49.63
2018-04-07T04:42:58.985Z,49.66
2018-04-07T04:44:01.489Z,49.68
2018-04-07T04:45:04.009Z,49.69
2018-04-07T04:46:06.528Z,49.90
2018-04-07T04:47:09.038Z,50.05
2018-04-07T04:48:11.541Z,49.89
2018-04-07T04:49:14.057Z,49.93
2018-04-07T04:50:16.567Z,49.88
2018-04-07T04:51:19.092Z,49.83
2018-04-07T04:52:21.612Z,49.85
2018-04-07T04:53:24.120Z,49.82
2018-04-07T04:54:26.632Z,49.84
2018-04-07T04:55:29.140Z,49.80
2018-04-07T04:56:31.668Z,49.82
2018-04-07T04:57:34.173Z,49.88
2018-04-07T04:58:36.677Z,49.91
2018-04-07T04:59:39.182Z,49.88
2018-04-07T05:00:41.684Z,49.86
2018-04-07T05:01:44.200Z,49.84
2018-04-07T05:02:46.719Z,49.80
2018-04-07T05:03:49.227Z,49.84
2018-04-07T05:04:51.760Z,49.93
2018-04-07T05:05:54.267Z,50.22
2018-04-07T05:06:56.796Z,50.36
2018-04-07T05:07:59.305Z,50.23
2018-04-07T05:09:01.841Z,50.16
2018-04-07T05:10:04.352Z,50.31
2018-04-07T05:11:06.856Z,50.39
2018-04-07T05:12:09.376Z,50.38
2018-04-07T05:13:11.877Z,50.24
2018-04-07T05:14:14.380Z,50.42
2018-04-07T05:15:16.885Z,50.49
2018-04-07T05:16:19.388Z,50.45
2018-04-07T05:17:21.908Z,50.39
2018-04-07T05:18:24.418Z,50.41
2018-04-07T05:19:26.954Z,50.39
2018-04-07T05:20:29.460Z,50.65
2018-04-07T05:21:31.960Z,50.93
2018-04-07T05:22:34.487Z,50.82
2018-04-07T05:23:37.140Z,50.92
2018-04-07T05:24:39.655Z,50.89
2018-04-07T05:25:42.160Z,50.98
2018-04-07T05:26:44.665Z,50.89
2018-04-07T05:27:47.181Z,51.13
2018-04-07T05:28:49.667Z,51.33
2018-04-07T05:29:52.191Z,51.54
2018-04-07T05:30:54.678Z,51.27
2018-04-07T05:31:57.162Z,51.32
2018-04-07T05:32:59.671Z,51.25
2018-04-07T05:34:02.184Z,51.19
2018-04-07T05:35:04.679Z,51.08
2018-04-07T05:36:07.179Z,51.28
2018-04-07T05:37:09.681Z,51.30
2018-04-07T05:38:12.180Z,51.44
2018-04-07T05:39:14.681Z,51.33
2018-04-07T05:40:17.166Z,51.67
2018-04-07T05:41:19.671Z,51.69
2018-04-07T05:42:22.159Z,51.22
2018-04-07T05:43:24.662Z,51.30
2018-04-07T05:44:27.155Z,51.27
2018-04-07T05:45:29.644Z,51.40
2018-04-07T05:46:32.161Z,51.49
2018-04-07T05:47:34.683Z,51.47
2018-04-07T05:48:37.187Z,51.34
2018-04-07T05:49:39.750Z,51.29
2018-04-07T05:50:42.256Z,51.34
2018-04-07T05:51:44.785Z,51.59
2018-04-07T05:52:47.278Z,51.68
2018-04-07T05:53:49.772Z,51.91
2018-04-07T05:54:52.248Z,51.66
2018-04-07T05:55:54.772Z,51.32
2018-04-07T05:56:57.270Z,51.28
2018-04-07T05:57:59.758Z,51.26
2018-04-07T05:59:02.259Z,51.31
2018-04-07T06:00:04.739Z,51.27
2018-04-07T06:01:07.235Z,51.29
2018-04-07T06:02:09.719Z,51.38
2018-04-07T06:03:12.211Z,51.52
2018-04-07T06:04:14.730Z,51.52
2018-04-07T06:05:17.218Z,51.58
2018-04-07T06:06:19.710Z,51.57
2018-04-07T06:07:22.202Z,51.59
2018-04-07T06:08:24.691Z,51.60
2018-04-07T06:09:27.206Z,51.55
2018-04-07T06:10:29.676Z,51.58
2018-04-07T06:11:32.164Z,51.78
2018-04-07T06:12:34.664Z,51.92
2018-04-07T06:13:37.150Z,51.67
2018-04-07T06:14:39.675Z,51.67
2018-04-07T06:15:42.180Z,51.71
2018-04-07T06:16:44.672Z,51.79
2018-04-07T06:17:47.150Z,51.84
2018-04-07T06:18:49.620Z,51.81
2018-04-07T06:19:52.126Z,51.82
2018-04-07T06:20:54.615Z,51.86
2018-04-07T06:21:57.110Z,51.88
2018-04-07T06:22:59.612Z,52.04
2018-04-07T06:24:02.150Z,52.32
2018-04-07T06:25:04.655Z,52.51
2018-04-07T06:26:07.124Z,52.35
2018-04-07T06:27:09.611Z,52.17
2018-04-07T06:28:12.106Z,52.15
2018-04-07T06:29:14.604Z,52.15
2018-04-07T06:30:17.115Z,52.18
2018-04-07T06:31:19.602Z,52.48
2018-04-07T06:32:22.240Z,52.42
2018-04-07T06:33:24.745Z,52.29
2018-04-07T06:34:27.276Z,52.24
2018-04-07T06:35:29.782Z,52.32
2018-04-07T06:36:32.249Z,52.14
2018-04-07T06:37:34.725Z,52.08
2018-04-07T06:38:37.196Z,52.15
2018-04-07T06:39:39.679Z,52.18
2018-04-07T06:40:42.193Z,52.26
2018-04-07T06:41:44.709Z,52.36
2018-04-07T06:42:47.203Z,52.51
2018-04-07T06:43:49.695Z,52.45
2018-04-07T06:44:52.426Z,52.58
2018-04-07T06:45:54.956Z,52.53
2018-04-07T06:46:57.461Z,52.38
2018-04-07T06:47:59.952Z,52.47
2018-04-07T06:49:02.428Z,52.51
2018-04-07T06:50:04.903Z,52.46
2018-04-07T06:51:07.427Z,52.68
2018-04-07T06:52:09.919Z,52.48
2018-04-07T06:53:12.433Z,52.50
2018-04-07T06:54:14.937Z,52.72
2018-04-07T06:55:17.430Z,52.84
2018-04-07T06:56:19.945Z,52.92
2018-04-07T06:57:22.452Z,53.01
2018-04-07T06:58:24.928Z,53.00
2018-04-07T06:59:27.433Z,53.05
2018-04-07T07:00:29.945Z,53.00
2018-04-07T07:01:32.454Z,53.05
2018-04-07T07:02:34.942Z,52.98
2018-04-07T07:03:37.437Z,53.10
2018-04-07T07:04:39.927Z,53.18
2018-04-07T07:05:42.603Z,53.18
2018-04-07T07:06:45.123Z,53.15
2018-04-07T07:07:47.603Z,53.17
2018-04-07T07:08:50.094Z,53.14
2018-04-07T07:09:52.587Z,53.20
2018-04-07T07:10:55.089Z,53.16
2018-04-07T07:11:57.637Z,53.01
2018-04-07T07:13:00.143Z,53.09
2018-04-07T07:14:02.638Z,53.07
2018-04-07T07:15:05.200Z,53.06
2018-04-07T07:16:07.719Z,53.12
2018-04-07T07:17:10.230Z,53.05
2018-04-07T07:18:12.722Z,53.14
2018-04-07T07:19:15.196Z,53.20
2018-04-07T07:20:17.997Z,53.22
2018-04-07T07:21:20.559Z,53.25
2018-04-07T07:22:23.059Z,53.35
2018-04-07T07:23:25.566Z,53.38
2018-04-07T07:24:28.055Z,53.25
2018-04-07T07:25:30.591Z,53.21
2018-04-07T07:26:33.094Z,53.19
2018-04-07T07:27:35.616Z,53.23
2018-04-07T07:28:38.111Z,53.23
2018-04-07T07:29:40.616Z,53.17
2018-04-07T07:30:43.109Z,53.19
2018-04-07T07:31:45.607Z,53.19
2018-04-07T07:32:48.133Z,53.14
2018-04-07T07:33:50.644Z,53.21
2018-04-07T07:34:53.130Z,53.14
2018-04-07T07:35:55.645Z,53.06
2018-04-07T07:36:58.148Z,53.12
2018-04-07T07:38:00.669Z,53.08
2018-04-07T07:39:03.180Z,53.11
2018-04-07T07:40:05.674Z,53.19
2018-04-07T07:41:08.166Z,53.07
2018-04-07T07:42:10.692Z,53.02
2018-04-07T07:43:13.226Z,53.04
2018-04-07T07:44:15.738Z,53.04
2018-04-07T07:45:18.237Z,53.01
2018-04-07T07:46:20.717Z,53.01
2018-04-07T07:47:23.204Z,53.03
2018-04-07T07:48:25.711Z,53.06
2018-04-07T07:49:28.247Z,53.05
2018-04-07T07:50:30.805Z,53.06
2018-04-07T07:51:33.295Z,53.07
2018-04-07T07:52:35.790Z,53.07
2018-04-07T07:53:38.328Z,53.03
2018-04-07T07:54:40.804Z,52.98
2018-04-07T07:55:43.284Z,53.02
2018-04-07T07:56:45.812Z,52.95
2018-04-07T07:57:48.284Z,52.94
2018-04-07T07:58:50.772Z,52.88
2018-04-07T07:59:53.302Z,52.92
2018-04-07T08:00:55.752Z,52.96
2018-04-07T08:01:58.232Z,52.92
2018-04-07T08:03:00.705Z,52.93
2018-04-07T08:04:03.211Z,52.94
2018-04-07T08:05:05.702Z,52.90
2018-04-07T08:06:08.172Z,52.72
2018-04-07T08:07:10.658Z,51.72
2018-04-07T08:08:13.142Z,50.66
2018-04-07T08:09:15.628Z,49.19
2018-04-07T08:10:18.119Z,47.60
2018-04-07T08:11:20.618Z,45.24
2018-04-07T08:12:23.138Z,43.94
2018-04-07T08:13:25.664Z,43.71
2018-04-07T08:14:28.229Z,42.87
2018-04-07T08:15:30.934Z,41.72
2018-04-07T08:16:33.506Z,40.50
2018-04-07T08:17:36.112Z,40.16
2018-04-07T08:18:38.822Z,40.03
2018-04-07T08:19:41.473Z,38.96
2018-04-07T08:20:44.071Z,39.18
2018-04-07T08:21:46.671Z,38.71
2018-04-07T08:22:49.150Z,38.88
2018-04-07T08:23:51.695Z,38.58
2018-04-07T08:24:54.242Z,38.47
2018-04-07T08:25:56.769Z,38.36
2018-04-07T08:26:59.284Z,38.45
2018-04-07T08:28:01.824Z,38.35
2018-04-07T08:29:04.343Z,37.73
2018-04-07T08:30:06.882Z,37.74
2018-04-07T08:31:09.393Z,37.57
2018-04-07T08:32:12.018Z,37.62
2018-04-07T08:33:14.548Z,38.02
2018-04-07T08:34:17.110Z,37.85
2018-04-07T08:35:19.652Z,37.69
2018-04-07T08:36:22.158Z,37.87
2018-04-07T08:37:24.683Z,37.71
2018-04-07T08:38:27.240Z,37.58
2018-04-07T08:39:29.781Z,37.52
2018-04-07T08:40:34.140Z,37.40
2018-04-07T08:41:36.652Z,37.57
2018-04-07T08:42:39.179Z,37.50
2018-04-07T08:43:41.684Z,37.20
2018-04-07T08:44:44.161Z,37.46
2018-04-07T08:45:46.689Z,37.51
2018-04-07T08:46:49.178Z,37.56
2018-04-07T08:47:51.670Z,37.63
2018-04-07T08:48:54.147Z,37.23
2018-04-07T08:49:56.648Z,37.21
2018-04-07T08:50:59.191Z,37.02
2018-04-07T08:52:01.687Z,36.79
2018-04-07T08:53:04.178Z,36.90
2018-04-07T08:54:06.675Z,36.89
2018-04-07T08:55:09.170Z,36.81
2018-04-07T08:56:11.743Z,36.79
2018-04-07T08:57:14.219Z,36.60
2018-04-07T08:58:16.715Z,36.79
2018-04-07T08:59:19.258Z,36.73
2018-04-07T09:00:21.732Z,36.47
2018-04-07T09:01:24.235Z,36.40
2018-04-07T09:02:26.732Z,36.42
2018-04-07T09:03:29.297Z,36.37
2018-04-07T09:04:31.771Z,36.41
2018-04-07T09:05:34.390Z,36.52
2018-04-07T09:06:36.966Z,36.62
2018-04-07T09:07:39.500Z,36.66
2018-04-07T09:08:41.991Z,36.85
2018-04-07T09:09:44.525Z,37.04
2018-04-07T09:10:47.068Z,37.08
2018-04-07T09:11:49.590Z,37.14
2018-04-07T09:12:52.083Z,37.01
2018-04-07T09:13:54.589Z,36.96
2018-04-07T09:14:57.214Z,36.76
2018-04-07T09:15:59.699Z,36.67
2018-04-07T09:17:02.192Z,36.42
2018-04-07T09:18:04.682Z,36.47
2018-04-07T09:19:07.170Z,36.43
2018-04-07T09:20:09.665Z,36.31
2018-04-07T09:21:12.179Z,36.31
2018-04-07T09:22:14.690Z,36.19
2018-04-07T09:23:17.275Z,36.25
2018-04-07T09:24:19.766Z,36.35
2018-04-07T09:25:22.289Z,36.51
2018-04-07T09:26:24.784Z,36.82
2018-04-07T09:27:27.276Z,37.25
2018-04-07T09:28:29.767Z,37.40
2018-04-07T09:29:33.058Z,37.56
2018-04-07T09:30:35.555Z,37.88
2018-04-07T09:31:38.037Z,37.79
2018-04-07T09:32:40.528Z,37.12
2018-04-07T09:33:43.029Z,37.21
2018-04-07T09:34:45.501Z,37.30
2018-04-07T09:35:48.048Z,37.63
2018-04-07T09:36:50.552Z,37.84
2018-04-07T09:37:53.059Z,38.02
2018-04-07T09:38:55.569Z,38.39
2018-04-07T09:39:58.127Z,38.69
2018-04-07T09:41:00.639Z,38.82
2018-04-07T09:42:03.161Z,38.75
2018-04-07T09:43:05.709Z,38.80
2018-04-07T09:44:08.204Z,38.95
2018-04-07T09:45:10.708Z,39.19
2018-04-07T09:46:13.226Z,39.40
2018-04-07T09:47:15.715Z,39.50
2018-04-07T09:48:18.251Z,39.34
2018-04-07T09:49:20.753Z,39.22
2018-04-07T09:50:23.242Z,39.25
2018-04-07T09:51:25.835Z,39.29
2018-04-07T09:52:28.334Z,39.34
2018-04-07T09:53:30.852Z,39.41
2018-04-07T09:54:33.364Z,39.44
2018-04-07T09:55:35.875Z,39.42
2018-04-07T09:56:38.368Z,39.31
2018-04-07T09:57:40.885Z,39.41
2018-04-07T09:58:43.444Z,39.58
2018-04-07T09:59:46.125Z,39.59
2018-04-07T10:00:48.614Z,39.53
2018-04-07T10:01:51.099Z,39.63
2018-04-07T10:02:59.183Z,39.54
2018-04-07T10:04:01.726Z,39.57
2018-04-07T10:05:04.222Z,39.67
2018-04-07T10:06:06.697Z,39.62
2018-04-07T10:07:09.345Z,39.57
2018-04-07T10:08:11.839Z,39.58
2018-04-07T10:09:14.348Z,39.78
2018-04-07T10:10:16.842Z,39.98
2018-04-07T10:11:19.341Z,40.04
2018-04-07T10:12:21.849Z,40.06
2018-04-07T10:13:24.386Z,40.13
2018-04-07T10:14:26.971Z,40.23
2018-04-07T10:15:29.498Z,40.25
2018-04-07T10:16:31.982Z,40.22
2018-04-07T10:17:34.545Z,40.20
2018-04-07T10:18:37.040Z,40.26
2018-04-07T10:19:39.561Z,40.27
2018-04-07T10:20:42.210Z,40.13
2018-04-07T10:21:44.698Z,40.12
2018-04-07T10:22:47.207Z,40.34
2018-04-07T10:23:49.851Z,40.45
2018-04-07T10:24:52.408Z,40.46
2018-04-07T10:25:54.909Z,40.45
2018-04-07T10:26:57.420Z,40.46
2018-04-07T10:27:59.949Z,40.39
2018-04-07T10:29:02.465Z,40.37
2018-04-07T10:30:04.984Z,40.72
2018-04-07T10:31:07.503Z,41.08
2018-04-07T10:32:10.077Z,41.14
2018-04-07T10:33:12.615Z,41.13
2018-04-07T10:34:15.125Z,41.18
2018-04-07T10:35:17.644Z,41.22
2018-04-07T10:36:20.185Z,41.28
2018-04-07T10:37:22.706Z,41.43
2018-04-07T10:38:25.199Z,41.54
2018-04-07T10:39:27.722Z,41.40
2018-04-07T10:40:30.210Z,41.60
2018-04-07T10:41:32.713Z,41.63
2018-04-07T10:42:35.216Z,41.44
2018-04-07T10:43:37.721Z,41.36
2018-04-07T10:44:40.394Z,41.36
2018-04-07T10:45:42.896Z,41.43
2018-04-07T10:46:45.509Z,41.50
2018-04-07T10:47:48.016Z,41.45
2018-04-07T10:48:50.521Z,41.34
2018-04-07T10:49:53.048Z,41.37
2018-04-07T10:50:55.553Z,41.62
2018-04-07T10:51:58.086Z,41.71
2018-04-07T10:53:00.611Z,41.80
2018-04-07T10:54:03.113Z,41.79
2018-04-07T10:55:05.685Z,41.73
2018-04-07T10:56:08.228Z,41.63
2018-04-07T10:57:10.720Z,41.43
2018-04-07T10:58:13.272Z,41.34
2018-04-07T10:59:16.538Z,41.37
2018-04-07T11:00:19.106Z,41.83
2018-04-07T11:01:21.590Z,41.96
2018-04-07T11:02:24.089Z,41.95
2018-04-07T11:03:26.572Z,42.10
2018-04-07T11:04:29.134Z,42.12
2018-04-07T11:05:31.646Z,42.05
2018-04-07T11:06:34.138Z,42.09
2018-04-07T11:07:36.653Z,42.29
2018-04-07T11:08:39.151Z,42.30
2018-04-07T11:09:41.650Z,42.33
2018-04-07T11:10:44.261Z,42.38
2018-04-07T11:11:46.750Z,42.38
2018-04-07T11:12:49.238Z,42.38
2018-04-07T11:13:51.867Z,42.37
2018-04-07T11:14:54.348Z,42.37
2018-04-07T11:15:56.884Z,42.31
2018-04-07T11:16:59.407Z,42.37
2018-04-07T11:18:01.946Z,42.44
2018-04-07T11:19:04.429Z,42.48
2018-04-07T11:20:06.904Z,42.50
2018-04-07T11:21:09.469Z,42.45
2018-04-07T11:22:11.961Z,42.50
2018-04-07T11:23:14.436Z,42.59
2018-04-07T11:24:16.937Z,42.53
2018-04-07T11:25:19.454Z,42.41
2018-04-07T11:26:22.045Z,42.46
2018-04-07T11:27:24.534Z,42.50
2018-04-07T11:28:27.095Z,42.51
2018-04-07T11:29:29.590Z,42.52
2018-04-07T11:30:32.111Z,42.50
2018-04-07T11:31:34.679Z,42.55
2018-04-07T11:32:37.176Z,42.55
2018-04-07T11:33:39.683Z,42.60
2018-04-07T11:34:42.177Z,42.57
2018-04-07T11:35:44.704Z,42.56
2018-04-07T11:36:47.281Z,42.50
2018-04-07T11:37:49.776Z,42.47
2018-04-07T11:38:52.284Z,42.47
2018-04-07T11:39:54.859Z,42.51
2018-04-07T11:40:57.350Z,42.43
2018-04-07T11:42:00.788Z,42.39
2018-04-07T11:43:03.350Z,42.32
2018-04-07T11:44:06.977Z,42.28
2018-04-07T11:45:09.519Z,42.29
2018-04-07T11:46:12.261Z,42.27
2018-04-07T11:47:15.037Z,42.24
2018-04-07T11:48:17.531Z,42.20
2018-04-07T11:49:20.018Z,42.23
2018-04-07T11:50:22.510Z,42.21
2018-04-07T11:52:32.155Z,42.35
2018-04-07T11:53:34.678Z,42.38
2018-04-07T11:54:37.156Z,42.28
2018-04-07T11:55:39.653Z,42.18
2018-04-07T11:56:42.156Z,42.18
2018-04-07T11:57:44.667Z,42.22
2018-04-07T11:58:47.175Z,42.24
2018-04-07T11:59:49.686Z,42.29
2018-04-07T12:00:52.207Z,42.28
2018-04-07T12:01:54.709Z,42.30
2018-04-07T12:02:57.194Z,42.36
2018-04-07T12:03:59.683Z,42.43
2018-04-07T12:05:02.197Z,42.50
2018-04-07T12:06:04.708Z,42.53
2018-04-07T12:07:07.242Z,42.55
2018-04-07T12:08:09.754Z,42.59
2018-04-07T12:09:12.284Z,42.59
2018-04-07T12:10:14.922Z,42.61
2018-04-07T12:11:17.687Z,42.58
2018-04-07T12:12:20.221Z,42.61
2018-04-07T12:13:22.811Z,42.64
2018-04-07T12:14:25.604Z,42.67
2018-04-07T12:15:28.103Z,42.74
2018-04-07T12:16:30.585Z,42.79
2018-04-07T12:17:33.077Z,42.96
2018-04-07T12:18:37.345Z,42.95
2018-04-07T12:19:39.901Z,42.94
2018-04-07T12:20:42.573Z,42.94
2018-04-07T12:21:45.183Z,43.00
2018-04-07T12:22:47.672Z,43.09
2018-04-07T12:23:50.250Z,43.15
2018-04-07T12:24:52.758Z,43.30
2018-04-07T12:25:55.255Z,43.31
2018-04-07T12:26:57.746Z,43.65
2018-04-07T12:28:00.267Z,43.72
2018-04-07T12:29:02.796Z,44.96
2018-04-07T12:30:05.307Z,44.41
2018-04-07T12:31:07.799Z,44.34
2018-04-07T12:32:10.304Z,44.06
2018-04-07T12:33:12.834Z,43.95
2018-04-07T12:34:15.344Z,43.85
2018-04-07T12:35:17.963Z,43.71
2018-04-07T12:36:20.645Z,43.59
2018-04-07T12:37:23.158Z,43.39
2018-04-07T12:38:25.673Z,43.22
2018-04-07T12:39:28.289Z,43.07
2018-04-07T12:40:30.821Z,42.99
2018-04-07T12:41:33.366Z,42.93
2018-04-07T12:42:35.924Z,42.87
2018-04-07T12:43:38.429Z,42.84
2018-04-07T12:44:40.920Z,42.78
2018-04-07T12:45:43.421Z,42.69
2018-04-07T12:46:45.916Z,42.68
2018-04-07T12:47:48.515Z,42.68
2018-04-07T12:48:51.080Z,42.67
2018-04-07T12:49:53.560Z,42.68
2018-04-07T12:50:56.099Z,42.68
2018-04-07T12:51:58.595Z,42.67
2018-04-07T12:53:01.106Z,42.67
2018-04-07T12:54:03.588Z,42.63
2018-04-07T12:55:06.069Z,42.66
2018-04-07T12:56:08.592Z,42.63
2018-04-07T12:57:11.087Z,42.60
2018-04-07T12:58:13.613Z,42.59
2018-04-07T12:59:16.096Z,42.57
2018-04-07T13:00:18.626Z,42.60
2018-04-07T13:01:21.133Z,42.63
2018-04-07T13:02:23.642Z,42.66
2018-04-07T13:03:26.203Z,42.58
2018-04-07T13:04:28.684Z,42.58
2018-04-07T13:05:31.183Z,42.59
2018-04-07T13:06:33.675Z,42.60
2018-04-07T13:07:36.240Z,42.58
2018-04-07T13:08:38.807Z,42.61
2018-04-07T13:09:41.325Z,42.61
2018-04-07T13:10:43.828Z,42.57
2018-04-07T13:11:46.328Z,42.55
2018-04-07T13:12:48.827Z,42.55
2018-04-07T13:13:51.394Z,42.59
2018-04-07T13:14:53.889Z,42.56
2018-04-07T13:15:56.372Z,42.53
2018-04-07T13:16:58.855Z,42.50
2018-04-07T13:18:01.350Z,42.52
2018-04-07T13:19:03.851Z,42.51
2018-04-07T13:20:06.351Z,42.53
2018-04-07T13:21:08.854Z,42.57
2018-04-07T13:22:11.351Z,42.54
2018-04-07T13:23:13.924Z,42.57
2018-04-07T13:24:16.446Z,42.54
2018-04-07T13:25:19.047Z,42.54
2018-04-07T13:26:21.546Z,42.51